createdAt,value
2022-08-09T00:00:46.062Z,101062.75
2022-08-09T00:05:03.099Z,101066.42
2022-08-09T00:09:25.090Z,101067.69
2022-08-09T00:13:32.760Z,101066.02
2022-08-09T00:18:05.171Z,101065.33
2022-08-09T00:22:08.004Z,101068.01
2022-08-09T00:26:29.882Z,101070.95
2022-08-09T00:30:42.304Z,101071.36
2022-08-09T00:34:52.137Z,101078.35
2022-08-09T00:39:00.727Z,101080.73
2022-08-09T00:44:15.772Z,101082.17
2022-08-09T00:47:41.418Z,101082.55
2022-08-09T00:51:54.532Z,101085.48
2022-08-09T00:56:09.651Z,101089.90
2022-08-09T01:00:21.952Z,101089.61
2022-08-09T01:04:34.148Z,101095.53
2022-08-09T01:08:51.600Z,101094.08
2022-08-09T01:13:07.502Z,101092.11
2022-08-09T01:17:20.425Z,101091.77
2022-08-09T01:21:50.830Z,101091.12
2022-08-09T01:26:12.408Z,101090.28
2022-08-09T01:30:33.499Z,101089.68
2022-08-09T01:34:52.267Z,101093.45
2022-08-09T01:39:02.132Z,101093.00
2022-08-09T01:43:10.111Z,101099.59
2022-08-09T01:47:18.603Z,101101.64
2022-08-09T01:51:27.153Z,101099.45
2022-08-09T01:55:40.697Z,101106.58
2022-08-09T01:59:52.561Z,101109.00
2022-08-09T02:04:01.821Z,101107.90
2022-08-09T02:08:39.692Z,101111.00
2022-08-09T02:12:41.801Z,101113.45
2022-08-09T02:16:59.145Z,101113.77
2022-08-09T02:21:22.992Z,101115.59
2022-08-09T02:25:33.113Z,101117.41
2022-08-09T02:29:53.468Z,101116.04
2022-08-09T02:34:13.264Z,101112.85
2022-08-09T02:38:28.703Z,101108.31
2022-08-09T02:42:40.976Z,101102.36
2022-08-09T02:46:52.250Z,101101.79
2022-08-09T02:51:02.424Z,101105.88
2022-08-09T02:55:20.718Z,101107.88
2022-08-09T02:59:36.351Z,101109.37
2022-08-09T03:04:17.315Z,101106.38
2022-08-09T03:08:16.363Z,101105.71
2022-08-09T03:12:25.603Z,101103.24
2022-08-09T03:16:33.606Z,101102.39
2022-08-09T03:20:45.417Z,101103.55
2022-08-09T03:25:06.284Z,101102.88
2022-08-09T03:29:23.082Z,101098.80
2022-08-09T03:33:54.457Z,101094.24
2022-08-09T03:37:59.932Z,101092.39
2022-08-09T03:42:08.533Z,101104.92
2022-08-09T03:46:20.712Z,101111.45
2022-08-09T03:50:36.472Z,101107.45
2022-08-09T03:54:44.413Z,101109.41
2022-08-09T03:58:52.466Z,101118.78
2022-08-09T04:03:04.129Z,101124.06
2022-08-09T04:07:14.808Z,101123.95
2022-08-09T04:11:25.030Z,101122.15
2022-08-09T04:15:52.095Z,101118.27
2022-08-09T04:20:02.678Z,101117.80
2022-08-09T04:24:11.001Z,101115.35
2022-08-09T04:28:31.433Z,101117.45
2022-08-09T04:32:46.870Z,101119.88
2022-08-09T04:36:54.945Z,101121.91
2022-08-09T04:41:02.277Z,101123.42
2022-08-09T04:45:12.467Z,101125.77
2022-08-09T04:49:30.127Z,101129.20
2022-08-09T04:53:53.830Z,101130.95
2022-08-09T04:58:09.616Z,101140.21
2022-08-09T05:02:17.558Z,101145.77
2022-08-09T05:06:27.922Z,101145.91
2022-08-09T05:10:36.846Z,101149.67
2022-08-09T05:14:44.924Z,101148.57
2022-08-09T05:18:59.212Z,101152.08
2022-08-09T05:23:54.879Z,101157.64
2022-08-09T05:27:34.982Z,101159.02
2022-08-09T05:31:57.566Z,101161.76
2022-08-09T05:36:07.155Z,101166.62
2022-08-09T05:40:16.291Z,101169.14
2022-08-09T05:44:29.074Z,101171.80
2022-08-09T05:48:42.088Z,101170.30
2022-08-09T05:52:53.366Z,101171.38
2022-08-09T05:57:01.816Z,101169.38
2022-08-09T06:01:15.999Z,101165.55
2022-08-09T06:05:50.480Z,101168.05
2022-08-09T06:10:02.000Z,101173.17
2022-08-09T06:14:11.160Z,101170.91
2022-08-09T06:18:18.952Z,101171.20
2022-08-09T06:22:28.974Z,101172.70
2022-08-09T06:26:43.698Z,101177.67
2022-08-09T06:30:53.327Z,101182.23
2022-08-09T06:35:01.215Z,101181.90
2022-08-09T06:39:14.780Z,101189.46
2022-08-09T06:43:23.415Z,101186.63
2022-08-09T06:47:39.846Z,101187.05
2022-08-09T06:51:49.368Z,101191.27
2022-08-09T06:55:59.339Z,101188.77
2022-08-09T07:00:55.908Z,101185.05
2022-08-09T07:04:36.451Z,101187.95
2022-08-09T07:08:43.963Z,101194.73
2022-08-09T07:12:57.063Z,101191.33
2022-08-09T07:17:05.876Z,101196.79
2022-08-09T07:21:15.817Z,101203.45
2022-08-09T07:25:23.248Z,101202.87
2022-08-09T07:29:38.044Z,101205.83
2022-08-09T07:33:53.024Z,101205.69
2022-08-09T07:38:03.030Z,101211.59
2022-08-09T07:42:11.660Z,101210.86
2022-08-09T07:46:19.553Z,101213.91
2022-08-09T07:50:32.990Z,101218.82
2022-08-09T07:54:51.424Z,101221.55
2022-08-09T07:59:00.213Z,101224.42
2022-08-09T08:03:11.454Z,101222.77
2022-08-09T08:08:43.914Z,101222.92
2022-08-09T08:12:11.615Z,101221.59
2022-08-09T08:16:31.396Z,101221.33
2022-08-09T08:20:42.903Z,101227.11
2022-08-09T08:24:55.912Z,101221.61
2022-08-09T08:29:05.038Z,101224.21
2022-08-09T08:33:24.131Z,101233.56
2022-08-09T08:37:41.154Z,101233.26
2022-08-09T08:42:00.787Z,101235.46
2022-08-09T08:46:33.052Z,101235.21
2022-08-09T08:50:38.514Z,101235.42
2022-08-09T08:54:45.947Z,101232.47
2022-08-09T08:58:56.468Z,101225.34
2022-08-09T09:03:11.511Z,101225.95
2022-08-09T09:07:22.112Z,101222.90
2022-08-09T09:11:33.861Z,101220.80
2022-08-09T09:15:49.173Z,101218.19
2022-08-09T09:19:58.505Z,101222.44
2022-08-09T09:24:21.403Z,101221.33
2022-08-09T09:29:01.689Z,101225.60
2022-08-09T09:33:17.238Z,101224.52
2022-08-09T09:37:32.510Z,101224.02
2022-08-09T09:41:48.971Z,101220.73
2022-08-09T09:46:39.584Z,101220.47
2022-08-09T09:50:49.568Z,101223.31
2022-08-09T09:55:16.641Z,101220.07
2022-08-09T09:59:37.866Z,101218.22
2022-08-09T10:03:57.184Z,101213.42
2022-08-09T10:08:27.364Z,101215.08
2022-08-09T10:12:43.607Z,101209.02
2022-08-09T10:17:11.354Z,101209.75
2022-08-09T10:21:26.061Z,101207.35
2022-08-09T10:26:06.921Z,101203.13
2022-08-09T10:30:43.910Z,101203.64
2022-08-09T10:34:35.784Z,101198.09
2022-08-09T10:38:57.257Z,101196.84
2022-08-09T10:43:11.212Z,101193.90
2022-08-09T10:48:19.203Z,101188.86
2022-08-09T10:52:13.571Z,101187.73
2022-08-09T10:56:31.014Z,101184.03
2022-08-09T11:03:01.664Z,101182.45
2022-08-09T11:05:24.860Z,101184.29
2022-08-09T11:09:53.875Z,101174.17
2022-08-09T11:14:35.181Z,101171.77
2022-08-09T11:18:48.452Z,101165.83
2022-08-09T11:23:07.145Z,101165.61
2022-08-09T11:28:03.999Z,101165.71
2022-08-09T11:32:02.391Z,101165.64
2022-08-09T11:36:10.507Z,101155.97
2022-08-09T11:40:37.479Z,101155.98
2022-08-09T11:44:49.783Z,101155.01
2022-08-09T11:48:58.791Z,101154.08
2022-08-09T11:53:57.647Z,101144.80
2022-08-09T11:58:00.988Z,101147.33
2022-08-09T12:02:37.593Z,101148.19
2022-08-09T12:06:55.974Z,101143.03
2022-08-09T12:11:05.133Z,101146.59
2022-08-09T12:15:50.420Z,101138.82
2022-08-09T12:19:59.562Z,101138.11
2022-08-09T12:24:10.379Z,101137.12
2022-08-09T12:29:09.667Z,101133.34
2022-08-09T12:32:48.721Z,101134.70
2022-08-09T12:37:21.778Z,101128.86
2022-08-09T12:41:39.035Z,101131.48
2022-08-09T12:45:59.876Z,101125.12
2022-08-09T12:50:19.917Z,101128.94
2022-08-09T12:54:31.213Z,101116.08
2022-08-09T12:58:42.682Z,101116.17
2022-08-09T13:02:57.331Z,101111.13
2022-08-09T13:07:16.787Z,101102.53
2022-08-09T13:11:32.152Z,101104.70
2022-08-09T13:15:53.964Z,101101.00
2022-08-09T13:20:14.085Z,101097.88
2022-08-09T13:24:48.423Z,101093.09
2022-08-09T13:29:09.461Z,101095.59
2022-08-09T13:33:24.770Z,101092.02
2022-08-09T13:37:53.426Z,101092.53
2022-08-09T13:42:05.509Z,101091.28
2022-08-09T13:47:15.217Z,101096.92
2022-08-09T13:50:48.258Z,101098.52
2022-08-09T13:55:00.682Z,101098.52
2022-08-09T13:59:13.132Z,101098.06
2022-08-09T14:04:03.610Z,101096.36
2022-08-09T14:07:49.591Z,101093.15
2022-08-09T14:12:01.036Z,101088.42
2022-08-09T14:16:16.347Z,101090.92
2022-08-09T14:20:29.012Z,101089.30
2022-08-09T14:24:36.893Z,101091.30
2022-08-09T14:28:57.334Z,101094.73
2022-08-09T14:33:11.455Z,101092.47
2022-08-09T14:37:20.422Z,101090.67
2022-08-09T14:41:40.026Z,101093.13
2022-08-09T14:46:51.421Z,101091.77
2022-08-09T14:50:17.409Z,101086.70
2022-08-09T14:54:27.537Z,101094.27
2022-08-09T14:58:43.734Z,101097.17
2022-08-09T15:02:52.243Z,101094.71
2022-08-09T15:06:59.376Z,101096.77
2022-08-09T15:11:07.800Z,101091.54
2022-08-09T15:15:15.418Z,101095.34
2022-08-09T15:19:26.228Z,101093.44
2022-08-09T15:24:03.599Z,101093.03
2022-08-09T15:28:02.168Z,101090.65
2022-08-09T15:32:39.089Z,101090.08
2022-08-09T15:36:38.577Z,101089.88
2022-08-09T15:40:56.686Z,101093.22
2022-08-09T15:45:05.359Z,101093.45
2022-08-09T15:49:22.732Z,101094.89
2022-08-09T15:54:05.691Z,101093.83
2022-08-09T15:58:00.196Z,101084.34
2022-08-09T16:02:09.365Z,101079.32
2022-08-09T16:06:32.556Z,101072.04
2022-08-09T16:10:56.257Z,101069.66
2022-08-09T16:15:05.395Z,101062.77
2022-08-09T16:19:36.871Z,101062.68
2022-08-09T16:23:58.629Z,101061.77
2022-08-09T16:28:06.734Z,101056.37
2022-08-09T16:32:33.551Z,101052.70
2022-08-09T16:36:41.714Z,101056.80
2022-08-09T16:40:48.892Z,101054.95
2022-08-09T16:44:56.600Z,101059.54
2022-08-09T16:49:18.688Z,101062.10
2022-08-09T16:53:33.816Z,101062.66
2022-08-09T16:58:08.667Z,101066.09
2022-08-09T17:02:14.006Z,101068.59
2022-08-09T17:06:31.248Z,101071.66
2022-08-09T17:10:40.958Z,101075.02
2022-08-09T17:14:54.862Z,101075.19
2022-08-09T17:19:05.488Z,101077.43
2022-08-09T17:23:14.722Z,101080.98
2022-08-09T17:27:22.496Z,101081.56
2022-08-09T17:31:30.044Z,101080.58
2022-08-09T17:35:46.689Z,101084.95
2022-08-09T17:39:56.366Z,101081.39
2022-08-09T17:44:42.209Z,101083.39
2022-08-09T17:48:31.377Z,101084.64
2022-08-09T17:52:38.971Z,101084.98
2022-08-09T17:56:47.659Z,101086.65
2022-08-09T18:00:56.438Z,101094.73
2022-08-09T18:05:04.822Z,101101.46
2022-08-09T18:09:12.944Z,101099.89
2022-08-09T18:13:40.067Z,101093.99
2022-08-09T18:18:03.997Z,101089.27
2022-08-09T18:22:16.861Z,101089.77
2022-08-09T18:26:24.914Z,101093.02
2022-08-09T18:30:35.117Z,101098.05
2022-08-09T18:34:50.374Z,101097.54
2022-08-09T18:39:02.765Z,101103.48
2022-08-09T18:43:11.050Z,101109.96
2022-08-09T18:47:23.827Z,101107.66
2022-08-09T18:51:38.402Z,101111.71
2022-08-09T18:56:01.056Z,101117.17
2022-08-09T19:00:19.202Z,101124.77
2022-08-09T19:04:35.250Z,101134.70
2022-08-09T19:08:54.872Z,101131.89
2022-08-09T19:13:13.616Z,101134.46
2022-08-09T19:17:31.315Z,101140.81
2022-08-09T19:22:04.302Z,101143.34
2022-08-09T19:26:13.877Z,101145.38
2022-08-09T19:30:28.822Z,101150.11
2022-08-09T19:34:43.607Z,101148.00
2022-08-09T19:38:52.073Z,101142.02
2022-08-09T19:42:59.947Z,101148.12
2022-08-09T19:47:11.078Z,101146.67
2022-08-09T19:51:18.868Z,101147.59
2022-08-09T19:55:53.039Z,101154.02
2022-08-09T19:59:59.365Z,101157.02
2022-08-09T20:04:25.090Z,101158.34
2022-08-09T20:08:37.406Z,101160.33
2022-08-09T20:12:46.779Z,101164.09
2022-08-09T20:16:57.172Z,101164.44
2022-08-09T20:21:08.557Z,101166.77
2022-08-09T20:25:22.866Z,101170.15
2022-08-09T20:29:37.357Z,101170.14
2022-08-09T20:33:45.827Z,101173.43
2022-08-09T20:38:21.119Z,101174.42
2022-08-09T20:42:21.474Z,101173.70
2022-08-09T20:46:42.452Z,101175.67
2022-08-09T20:50:55.784Z,101176.99
2022-08-09T20:55:08.786Z,101178.27
2022-08-09T20:59:25.014Z,101176.02
2022-08-09T21:04:07.952Z,101180.14
2022-08-09T21:08:14.693Z,101183.79
2022-08-09T21:12:22.211Z,101190.55
2022-08-09T21:16:30.571Z,101193.23
2022-08-09T21:20:39.412Z,101197.17
2022-08-09T21:25:04.420Z,101197.80
2022-08-09T21:29:14.530Z,101201.58
2022-08-09T21:33:36.118Z,101203.52
2022-08-09T21:37:58.830Z,101210.60
2022-08-09T21:42:10.127Z,101213.08
2022-08-09T21:46:19.363Z,101213.64
2022-08-09T21:50:38.519Z,101214.15
2022-08-09T21:54:50.536Z,101209.98
2022-08-09T21:59:01.136Z,101210.80
2022-08-09T22:03:19.173Z,101205.97
2022-08-09T22:07:41.522Z,101212.34
2022-08-09T22:12:18.079Z,101212.44
2022-08-09T22:16:24.970Z,101215.56
2022-08-09T22:20:32.536Z,101213.02
2022-08-09T22:24:40.408Z,101215.95
2022-08-09T22:29:09.998Z,101214.12
2022-08-09T22:33:18.054Z,101216.73
2022-08-09T22:37:29.233Z,101219.23
2022-08-09T22:41:48.408Z,101212.42
2022-08-09T22:48:12.118Z,101209.98
2022-08-09T22:50:23.942Z,101209.20
2022-08-09T22:54:32.830Z,101215.85
2022-08-09T22:58:40.353Z,101222.70
2022-08-09T23:02:50.183Z,101227.39
2022-08-09T23:07:16.431Z,101226.75
2022-08-09T23:11:24.554Z,101229.70
2022-08-09T23:15:32.440Z,101232.94
2022-08-09T23:20:06.471Z,101237.98
2022-08-09T23:24:08.064Z,101235.55
2022-08-09T23:28:16.259Z,101233.70
2022-08-09T23:32:23.932Z,101231.77
2022-08-09T23:36:31.680Z,101232.64
2022-08-09T23:40:39.295Z,101227.63
2022-08-09T23:44:48.651Z,101229.33
2022-08-09T23:48:57.086Z,101229.32
2022-08-09T23:53:04.848Z,101227.13
2022-08-09T23:57:13.244Z,101232.24
